createdAt,value
2018-05-07T00:01:06.563Z,1.30
2018-05-07T00:03:40.007Z,1.48
2018-05-07T00:06:12.685Z,1.60
2018-05-07T00:08:46.366Z,2.00
2018-05-07T00:11:19.086Z,1.50
2018-05-07T00:13:51.962Z,1.83
2018-05-07T00:16:26.365Z,1.40
2018-05-07T00:18:59.277Z,1.60
2018-05-07T00:21:31.796Z,1.80
2018-05-07T00:24:05.305Z,1.60
2018-05-07T00:26:39.140Z,1.80
2018-05-07T00:29:12.379Z,1.70
2018-05-07T00:31:45.504Z,1.73
2018-05-07T00:34:19.652Z,1.80
2018-05-07T00:36:53.615Z,1.40
2018-05-07T00:39:27.082Z,1.50
2018-05-07T00:42:00.590Z,1.30
2018-05-07T00:44:33.681Z,1.40
2018-05-07T00:47:06.733Z,1.57
2018-05-07T00:49:39.483Z,3.60
2018-05-07T00:52:11.989Z,3.50
2018-05-07T00:54:55.491Z,2.20
2018-05-07T00:57:28.585Z,1.70
2018-05-07T01:00:00.994Z,1.70
2018-05-07T01:02:34.155Z,1.60
2018-05-07T01:05:07.452Z,2.07
2018-05-07T01:07:39.940Z,1.97
2018-05-07T01:10:12.948Z,6.40
2018-05-07T01:12:46.017Z,4.80
2018-05-07T01:15:19.626Z,3.00
2018-05-07T01:17:53.561Z,2.42
2018-05-07T01:20:26.956Z,2.22
2018-05-07T01:23:00.763Z,1.97
2018-05-07T01:25:33.557Z,1.70
2018-05-07T01:28:06.423Z,1.73
2018-05-07T01:30:39.448Z,1.80
2018-05-07T01:33:12.951Z,2.50
2018-05-07T01:35:46.344Z,2.70
2018-05-07T01:38:58.335Z,2.40
2018-05-07T01:41:30.759Z,2.30
2018-05-07T01:44:03.444Z,1.90
2018-05-07T01:46:36.549Z,1.90
2018-05-07T01:49:10.483Z,1.70
2018-05-07T01:51:43.423Z,1.60
2018-05-07T01:54:16.568Z,1.47
2018-05-07T01:56:50.247Z,1.50
2018-05-07T01:59:23.554Z,1.65
2018-05-07T02:01:57.134Z,2.08
2018-05-07T02:04:31.334Z,1.80
2018-05-07T02:07:04.348Z,2.12
2018-05-07T02:09:37.519Z,2.03
2018-05-07T02:12:10.337Z,1.90
2018-05-07T02:14:42.875Z,1.70
2018-05-07T02:17:15.989Z,1.30
2018-05-07T02:19:49.705Z,1.83
2018-05-07T02:22:22.054Z,1.67
2018-05-07T02:24:54.420Z,1.70
2018-05-07T02:27:28.009Z,1.60
2018-05-07T02:30:00.778Z,1.77
2018-05-07T02:32:34.321Z,1.60
2018-05-07T02:35:07.344Z,1.50
2018-05-07T02:37:40.342Z,1.70
2018-05-07T02:40:13.597Z,1.63
2018-05-07T02:42:47.260Z,1.52
2018-05-07T02:45:20.264Z,1.70
2018-05-07T02:47:53.757Z,1.90
2018-05-07T02:50:26.982Z,1.83
2018-05-07T02:52:59.973Z,1.90
2018-05-07T02:55:32.953Z,1.70
2018-05-07T02:58:06.430Z,1.53
2018-05-07T03:00:39.453Z,1.63
2018-05-07T03:03:19.340Z,1.60
2018-05-07T03:05:53.870Z,1.80
2018-05-07T03:08:27.593Z,1.70
2018-05-07T03:11:01.442Z,1.97
2018-05-07T03:13:34.558Z,1.80
2018-05-07T03:16:07.565Z,1.57
2018-05-07T03:18:40.690Z,1.63
2018-05-07T03:21:13.296Z,1.90
2018-05-07T03:23:46.054Z,1.97
2018-05-07T03:26:19.934Z,1.80
2018-05-07T03:28:53.285Z,1.62
2018-05-07T03:31:25.533Z,2.20
2018-05-07T03:33:58.618Z,1.70
2018-05-07T03:36:31.807Z,1.70
2018-05-07T03:39:04.563Z,2.05
2018-05-07T03:41:37.582Z,1.70
2018-05-07T03:44:10.583Z,1.67
2018-05-07T03:46:43.488Z,1.77
2018-05-07T03:51:48.684Z,1.90
2018-05-07T03:54:21.177Z,1.80
2018-05-07T03:56:54.102Z,1.80
2018-05-07T03:59:27.120Z,2.10
2018-05-07T04:02:00.519Z,2.00
2018-05-07T04:04:33.732Z,1.70
2018-05-07T04:07:06.989Z,2.00
2018-05-07T04:09:40.516Z,2.40
2018-05-07T04:12:13.370Z,2.60
2018-05-07T04:14:44.998Z,3.00
2018-05-07T04:17:28.690Z,2.70
2018-05-07T04:20:11.577Z,2.30
2018-05-07T04:22:54.314Z,2.00
2018-05-07T04:25:25.785Z,2.00
2018-05-07T04:27:58.032Z,1.87
2018-05-07T04:30:30.014Z,1.93
2018-05-07T04:33:03.127Z,2.03
2018-05-07T04:35:35.000Z,2.00
2018-05-07T04:38:07.114Z,2.20
2018-05-07T04:40:38.586Z,2.20
2018-05-07T04:43:10.490Z,1.90
2018-05-07T04:45:43.468Z,1.87
2018-05-07T04:48:15.058Z,2.00
2018-05-07T04:50:46.617Z,2.07
2018-05-07T04:55:51.112Z,1.95
2018-05-07T04:58:22.614Z,1.70
2018-05-07T05:00:54.403Z,1.73
2018-05-07T05:03:26.034Z,1.50
2018-05-07T05:05:57.950Z,2.10
2018-05-07T05:08:31.509Z,2.00
2018-05-07T05:11:03.489Z,1.77
2018-05-07T05:13:35.236Z,1.90
2018-05-07T05:16:06.846Z,1.70
2018-05-07T05:18:43.725Z,1.80
2018-05-07T05:21:17.509Z,1.90
2018-05-07T05:23:50.534Z,1.80
2018-05-07T05:26:24.289Z,1.80
2018-05-07T05:28:56.594Z,1.90
2018-05-07T05:31:31.455Z,1.90
2018-05-07T05:34:04.599Z,1.70
2018-05-07T05:36:38.393Z,2.12
2018-05-07T05:39:12.629Z,1.53
2018-05-07T05:41:45.714Z,1.80
2018-05-07T05:44:19.268Z,1.90
2018-05-07T05:46:53.438Z,1.80
2018-05-07T05:49:26.495Z,1.80
2018-05-07T05:51:59.612Z,1.70
2018-05-07T05:54:32.422Z,1.67
2018-05-07T05:57:05.396Z,1.87
2018-05-07T05:59:38.406Z,1.80
2018-05-07T06:02:12.575Z,1.70
2018-05-07T06:04:45.972Z,1.55
2018-05-07T06:07:19.331Z,1.90
2018-05-07T06:09:52.776Z,1.80
2018-05-07T06:12:25.751Z,1.70
2018-05-07T06:14:59.056Z,1.80
2018-05-07T06:17:32.437Z,2.90
2018-05-07T06:20:06.608Z,3.13
2018-05-07T06:22:40.639Z,3.05
2018-05-07T06:25:13.793Z,2.77
2018-05-07T06:27:47.291Z,2.90
2018-05-07T06:30:21.780Z,2.30
2018-05-07T06:32:55.344Z,2.10
2018-05-07T06:35:29.271Z,2.30
2018-05-07T06:38:02.428Z,2.00
2018-05-07T06:40:35.801Z,1.92
2018-05-07T06:43:09.569Z,1.75
2018-05-07T06:45:42.487Z,1.77
2018-05-07T06:48:15.636Z,1.80
2018-05-07T06:50:48.423Z,2.23
2018-05-07T06:53:21.715Z,1.80
2018-05-07T06:55:55.742Z,1.95
2018-05-07T07:01:01.105Z,2.20
2018-05-07T07:03:35.564Z,1.83
2018-05-07T07:06:08.557Z,2.10
2018-05-07T07:08:41.631Z,1.80
2018-05-07T07:11:15.130Z,1.90
2018-05-07T07:13:47.910Z,1.90
2018-05-07T07:16:21.598Z,1.67
2018-05-07T07:18:55.123Z,2.00
2018-05-07T07:21:28.075Z,2.57
2018-05-07T07:24:25.546Z,2.07
2018-05-07T07:26:58.659Z,2.00
2018-05-07T07:29:32.684Z,1.95
2018-05-07T07:32:05.430Z,2.00
2018-05-07T07:34:37.966Z,1.90
2018-05-07T07:37:11.638Z,2.10
2018-05-07T07:39:43.917Z,2.07
2018-05-07T07:42:17.450Z,2.03
2018-05-07T07:44:51.940Z,1.60
2018-05-07T07:47:25.097Z,1.93
2018-05-07T07:49:57.657Z,1.87
2018-05-07T07:52:30.613Z,2.30
2018-05-07T07:55:04.591Z,1.90
2018-05-07T07:57:38.975Z,1.70
2018-05-07T08:00:11.907Z,2.00
2018-05-07T08:02:44.576Z,2.00
2018-05-07T08:05:17.281Z,2.40
2018-05-07T08:07:50.576Z,2.20
2018-05-07T08:10:24.282Z,2.10
2018-05-07T08:12:57.859Z,2.10
2018-05-07T08:15:30.446Z,2.03
2018-05-07T08:18:03.474Z,2.00
2018-05-07T08:21:50.863Z,2.10
2018-05-07T08:24:24.088Z,1.93
2018-05-07T08:26:57.567Z,2.33
2018-05-07T08:29:33.237Z,2.23
2018-05-07T08:32:06.473Z,2.10
2018-05-07T08:34:39.516Z,1.97
2018-05-07T08:37:13.072Z,2.40
2018-05-07T08:39:46.887Z,1.92
2018-05-07T08:42:19.639Z,2.30
2018-05-07T08:44:52.361Z,1.80
2018-05-07T08:47:24.924Z,2.07
2018-05-07T08:51:25.674Z,2.10
2018-05-07T08:56:30.975Z,1.80
2018-05-07T08:59:03.469Z,2.13
2018-05-07T09:01:37.447Z,2.50
2018-05-07T09:04:09.987Z,2.10
2018-05-07T09:06:43.459Z,2.00
2018-05-07T09:09:16.786Z,2.10
2018-05-07T09:11:49.783Z,2.22
2018-05-07T09:14:22.591Z,2.20
2018-05-07T09:16:55.466Z,2.27
2018-05-07T09:19:28.343Z,1.85
2018-05-07T09:22:01.416Z,2.00
2018-05-07T09:24:34.093Z,2.20
2018-05-07T09:27:07.318Z,2.13
2018-05-07T09:29:39.713Z,2.30
2018-05-07T09:32:12.806Z,1.90
2018-05-07T09:34:45.994Z,2.50
2018-05-07T09:37:19.862Z,2.33
2018-05-07T09:39:53.414Z,1.90
2018-05-07T09:42:26.408Z,2.28
2018-05-07T09:44:59.227Z,2.30
2018-05-07T09:47:31.939Z,2.10
2018-05-07T09:51:24.522Z,1.97
2018-05-07T09:53:57.701Z,2.00
2018-05-07T09:56:30.447Z,2.40
2018-05-07T09:59:03.037Z,2.37
2018-05-07T10:01:36.024Z,2.13
2018-05-07T10:04:09.177Z,2.17
2018-05-07T10:06:42.330Z,2.07
2018-05-07T10:09:15.161Z,2.30
2018-05-07T10:11:47.894Z,2.50
2018-05-07T10:14:20.550Z,2.20
2018-05-07T10:16:53.219Z,2.20
2018-05-07T10:19:26.410Z,2.10
2018-05-07T10:22:00.058Z,2.60
2018-05-07T10:24:33.435Z,2.40
2018-05-07T10:27:06.424Z,2.37
2018-05-07T10:29:40.347Z,2.90
2018-05-07T10:32:12.933Z,2.23
2018-05-07T10:34:45.493Z,2.67
2018-05-07T10:37:18.347Z,2.60
2018-05-07T10:39:51.145Z,2.53
2018-05-07T10:42:23.486Z,2.30
2018-05-07T10:44:56.555Z,2.50
2018-05-07T10:47:30.965Z,2.60
2018-05-07T10:50:04.315Z,2.10
2018-05-07T10:52:38.509Z,2.12
2018-05-07T10:55:11.637Z,2.35
2018-05-07T10:57:44.461Z,2.80
2018-05-07T11:00:18.424Z,2.50
2018-05-07T11:02:52.033Z,2.30
2018-05-07T11:05:25.485Z,2.30
2018-05-07T11:07:58.657Z,2.00
2018-05-07T11:10:31.761Z,2.30
2018-05-07T11:13:05.465Z,2.10
2018-05-07T11:15:39.474Z,1.87
2018-05-07T11:18:12.479Z,2.40
2018-05-07T11:20:45.012Z,2.10
2018-05-07T11:23:18.326Z,2.40
2018-05-07T11:25:51.786Z,2.00
2018-05-07T11:28:25.595Z,2.22
2018-05-07T11:31:00.076Z,2.00
2018-05-07T11:33:33.418Z,1.80
2018-05-07T11:36:05.943Z,2.40
2018-05-07T11:41:16.532Z,2.05
2018-05-07T11:43:50.210Z,2.00
2018-05-07T11:46:23.871Z,1.85
2018-05-07T11:48:56.803Z,1.80
2018-05-07T11:51:30.063Z,2.03
2018-05-07T11:54:03.249Z,2.60
2018-05-07T11:56:36.499Z,2.20
2018-05-07T11:59:09.469Z,1.98
2018-05-07T12:01:42.355Z,1.60
2018-05-07T12:04:15.994Z,2.00
2018-05-07T12:06:49.230Z,2.25
2018-05-07T12:09:22.024Z,1.80
2018-05-07T12:11:54.717Z,2.30
2018-05-07T12:14:27.740Z,2.40
2018-05-07T12:17:00.266Z,2.33
2018-05-07T12:19:33.712Z,2.30
2018-05-07T12:22:06.540Z,2.12
2018-05-07T12:24:39.712Z,2.20
2018-05-07T12:27:12.710Z,2.27
2018-05-07T12:29:45.426Z,2.40
2018-05-07T12:32:18.648Z,2.27
2018-05-07T12:34:52.321Z,2.30
2018-05-07T12:37:25.408Z,2.43
2018-05-07T12:39:58.521Z,1.90
2018-05-07T12:42:31.326Z,2.23
2018-05-07T12:45:04.535Z,2.22
2018-05-07T12:47:37.324Z,2.10
2018-05-07T12:50:10.618Z,2.17
2018-05-07T12:52:43.682Z,1.80
2018-05-07T12:57:48.419Z,2.30
2018-05-07T13:00:21.748Z,2.37
2018-05-07T13:02:55.228Z,2.25
2018-05-07T13:05:27.811Z,2.80
2018-05-07T13:08:00.231Z,2.20
2018-05-07T13:10:32.810Z,2.27
2018-05-07T13:13:05.832Z,2.30
2018-05-07T13:15:38.588Z,2.10
2018-05-07T13:18:11.516Z,2.30
2018-05-07T13:20:44.595Z,2.40
2018-05-07T13:23:17.788Z,2.70
2018-05-07T13:25:51.027Z,2.30
2018-05-07T13:28:24.790Z,2.62
2018-05-07T13:30:57.652Z,2.33
2018-05-07T13:33:30.554Z,2.28
2018-05-07T13:36:03.503Z,2.35
2018-05-07T13:38:37.277Z,2.10
2018-05-07T13:41:10.594Z,2.40
2018-05-07T13:43:43.427Z,2.80
2018-05-07T13:46:16.406Z,2.20
2018-05-07T13:48:49.679Z,2.20
2018-05-07T13:51:23.424Z,2.67
2018-05-07T13:53:56.413Z,2.33
2018-05-07T13:56:29.250Z,2.30
2018-05-07T13:59:02.682Z,2.40
2018-05-07T14:01:35.729Z,2.47
2018-05-07T14:04:08.937Z,2.33
2018-05-07T14:06:41.973Z,2.65
2018-05-07T14:09:15.083Z,2.17
2018-05-07T14:11:48.081Z,2.90
2018-05-07T14:14:20.940Z,2.87
2018-05-07T14:16:55.063Z,3.27
2018-05-07T14:19:28.868Z,2.80
2018-05-07T14:22:02.436Z,3.25
2018-05-07T14:24:35.511Z,3.23
2018-05-07T14:27:08.063Z,3.20
2018-05-07T14:29:41.768Z,3.28
2018-05-07T14:32:15.439Z,3.40
2018-05-07T14:34:48.488Z,3.00
2018-05-07T14:37:21.684Z,2.75
2018-05-07T14:39:54.432Z,3.30
2018-05-07T14:42:27.971Z,2.50
2018-05-07T14:45:01.460Z,2.70
2018-05-07T14:47:34.546Z,2.40
2018-05-07T14:50:07.773Z,2.85
2018-05-07T14:52:40.549Z,3.40
2018-05-07T14:55:13.551Z,2.83
2018-05-07T14:57:48.271Z,3.45
2018-05-07T15:00:20.901Z,3.70
2018-05-07T15:02:53.701Z,3.70
2018-05-07T15:05:26.982Z,3.55
2018-05-07T15:08:00.298Z,3.40
2018-05-07T15:10:33.131Z,3.03
2018-05-07T15:13:06.427Z,3.80
2018-05-07T15:15:39.060Z,2.80
2018-05-07T15:18:12.706Z,3.27
2018-05-07T15:20:46.071Z,4.10
2018-05-07T15:23:19.499Z,3.97
2018-05-07T15:25:55.292Z,5.07
2018-05-07T15:28:28.563Z,3.30
2018-05-07T15:31:01.941Z,3.40
2018-05-07T15:33:34.942Z,3.60
2018-05-07T15:36:08.349Z,3.63
2018-05-07T15:38:41.668Z,3.10
2018-05-07T15:41:15.899Z,3.05
2018-05-07T15:43:49.834Z,2.97
2018-05-07T15:46:22.938Z,3.30
2018-05-07T15:48:56.448Z,3.10
2018-05-07T15:51:30.427Z,2.97
2018-05-07T15:54:04.573Z,2.83
2018-05-07T15:56:38.590Z,2.87
2018-05-07T15:59:11.735Z,2.40
2018-05-07T16:01:44.976Z,2.33
2018-05-07T16:04:18.097Z,2.57
2018-05-07T16:06:51.102Z,2.63
2018-05-07T16:09:24.263Z,2.60
2018-05-07T16:11:57.028Z,2.80
2018-05-07T16:14:30.692Z,2.73
2018-05-07T16:17:03.485Z,2.73
2018-05-07T16:19:36.540Z,2.33
2018-05-07T16:22:09.508Z,2.47
2018-05-07T16:24:42.422Z,2.40
2018-05-07T16:27:14.131Z,2.80
2018-05-07T16:29:47.302Z,3.10
2018-05-07T16:32:19.106Z,2.47
2018-05-07T16:34:52.120Z,2.30
2018-05-07T16:37:25.150Z,2.20
2018-05-07T16:39:57.076Z,2.22
2018-05-07T16:42:29.115Z,2.73
2018-05-07T16:45:01.619Z,2.20
2018-05-07T16:47:33.499Z,2.33
2018-05-07T16:50:07.963Z,2.90
2018-05-07T16:52:40.826Z,2.60
2018-05-07T16:55:12.434Z,2.10
2018-05-07T16:57:44.098Z,2.73
2018-05-07T17:00:16.070Z,1.93
2018-05-07T17:02:47.529Z,2.10
2018-05-07T17:05:19.408Z,1.90
2018-05-07T17:07:51.148Z,1.90
2018-05-07T17:10:23.539Z,3.00
2018-05-07T17:12:55.411Z,2.67
2018-05-07T17:15:27.070Z,2.47
2018-05-07T17:17:59.168Z,2.40
2018-05-07T17:20:31.079Z,2.57
2018-05-07T17:23:08.540Z,2.50
2018-05-07T17:25:40.066Z,2.53
2018-05-07T17:28:11.811Z,2.40
2018-05-07T17:31:31.659Z,2.03
2018-05-07T17:34:04.541Z,2.28
2018-05-07T17:36:36.414Z,2.30
2018-05-07T17:39:08.239Z,2.47
2018-05-07T17:41:39.928Z,2.00
2018-05-07T17:44:23.321Z,2.10
2018-05-07T17:47:06.610Z,2.03
2018-05-07T17:49:39.739Z,2.10
2018-05-07T17:54:45.765Z,2.67
2018-05-07T17:57:17.543Z,2.20
2018-05-07T17:59:49.571Z,2.30
2018-05-07T18:02:21.954Z,2.40
2018-05-07T18:04:53.934Z,2.50
2018-05-07T18:08:36.466Z,2.20
2018-05-07T18:16:04.549Z,2.35
2018-05-07T18:18:35.969Z,2.60
2018-05-07T18:21:07.554Z,1.90
2018-05-07T18:23:38.952Z,1.90
2018-05-07T18:26:11.574Z,2.07
2018-05-07T18:28:44.441Z,2.20
2018-05-07T18:31:17.063Z,1.93
2018-05-07T18:33:49.594Z,1.73
2018-05-07T18:36:21.056Z,1.80
2018-05-07T18:38:52.613Z,2.00
2018-05-07T18:41:24.432Z,1.80
2018-05-07T18:43:58.290Z,1.70
2018-05-07T18:47:42.871Z,1.83
2018-05-07T18:50:15.063Z,1.60
2018-05-07T18:52:47.664Z,1.62
2018-05-07T18:58:04.671Z,1.30
2018-05-07T19:00:36.343Z,1.80
2018-05-07T19:03:07.959Z,1.80
2018-05-07T19:05:39.947Z,1.73
2018-05-07T19:08:12.646Z,1.60
2018-05-07T19:10:45.141Z,1.67
2018-05-07T19:13:16.555Z,1.60
2018-05-07T19:15:48.035Z,1.50
2018-05-07T19:18:19.556Z,1.80
2018-05-07T19:23:23.108Z,1.60
2018-05-07T19:28:33.819Z,1.40
2018-05-07T19:31:05.553Z,1.60
2018-05-07T19:33:37.451Z,1.52
2018-05-07T19:36:08.977Z,1.50
2018-05-07T19:38:41.519Z,1.47
2018-05-07T19:41:13.503Z,1.40
2018-05-07T19:43:45.189Z,1.70
2018-05-07T19:46:17.292Z,1.67
2018-05-07T19:48:49.111Z,1.50
2018-05-07T19:51:20.533Z,1.80
2018-05-07T19:53:52.032Z,1.90
2018-05-07T19:56:23.552Z,1.70
2018-05-07T19:58:56.428Z,1.60
2018-05-07T20:01:27.981Z,1.77
2018-05-07T20:03:59.590Z,1.67
2018-05-07T20:06:31.292Z,2.03
2018-05-07T20:11:38.576Z,2.17
2018-05-07T20:14:10.165Z,1.90
2018-05-07T20:16:41.978Z,1.93
2018-05-07T20:19:14.969Z,1.90
2018-05-07T20:21:47.095Z,2.10
2018-05-07T20:24:20.372Z,1.90
2018-05-07T20:26:52.363Z,1.70
2018-05-07T20:29:24.283Z,1.60
2018-05-07T20:31:55.977Z,1.80
2018-05-07T20:34:27.517Z,2.40
2018-05-07T20:36:59.287Z,2.17
2018-05-07T20:39:31.113Z,2.20
2018-05-07T20:42:03.767Z,1.97
2018-05-07T20:44:35.969Z,2.30
2018-05-07T20:47:07.546Z,1.90
2018-05-07T20:49:40.395Z,2.10
2018-05-07T20:52:11.993Z,2.13
2018-05-07T20:54:44.048Z,2.20
2018-05-07T20:57:15.489Z,2.53
2018-05-07T20:59:47.330Z,2.10
2018-05-07T21:02:19.484Z,2.27
2018-05-07T21:04:51.086Z,1.93
2018-05-07T21:07:22.592Z,2.80
2018-05-07T21:09:54.157Z,2.83
2018-05-07T21:12:25.605Z,2.13
2018-05-07T21:14:57.623Z,2.67
2018-05-07T21:19:59.977Z,2.50
2018-05-07T21:22:31.524Z,2.20
2018-05-07T21:25:03.840Z,2.30
2018-05-07T21:27:35.542Z,2.80
2018-05-07T21:32:05.601Z,2.50
2018-05-07T21:34:37.102Z,2.43
2018-05-07T21:37:08.865Z,2.20
2018-05-07T21:39:40.351Z,2.25
2018-05-07T21:42:11.995Z,2.20
2018-05-07T21:44:43.671Z,2.00
2018-05-07T21:47:15.897Z,2.20
2018-05-07T21:49:47.557Z,2.40
2018-05-07T21:52:19.326Z,2.43
2018-05-07T21:55:20.515Z,2.60
2018-05-07T21:57:52.389Z,2.13
2018-05-07T23:15:47.461Z,1.80
2018-05-07T23:21:06.450Z,1.65
2018-05-07T23:23:37.974Z,2.00
2018-05-07T23:26:09.949Z,1.90
2018-05-07T23:28:43.326Z,1.80
2018-05-07T23:31:16.351Z,2.30
2018-05-07T23:33:47.962Z,2.00
2018-05-07T23:36:21.187Z,2.30
2018-05-07T23:38:53.959Z,2.30
2018-05-07T23:41:27.462Z,2.20
2018-05-07T23:43:59.276Z,2.13
2018-05-07T23:46:30.568Z,2.20
2018-05-07T23:49:04.016Z,2.25
2018-05-07T23:51:37.352Z,2.20
2018-05-07T23:54:09.022Z,2.30
2018-05-07T23:56:41.157Z,2.20
2018-05-07T23:59:13.559Z,2.10
